createdAt,value
2018-07-03T00:00:39.446Z,63.02
2018-07-03T00:01:39.474Z,63.31
2018-07-03T00:02:39.498Z,62.93
2018-07-03T00:03:39.521Z,62.83
2018-07-03T00:04:39.547Z,63.31
2018-07-03T00:05:39.600Z,63.51
2018-07-03T00:06:39.599Z,63.41
2018-07-03T00:07:39.628Z,62.74
2018-07-03T00:08:39.652Z,62.35
2018-07-03T00:09:39.678Z,62.26
2018-07-03T00:10:39.703Z,62.16
2018-07-03T00:11:39.731Z,62.06
2018-07-03T00:12:39.755Z,62.74
2018-07-03T00:13:39.779Z,62.45
2018-07-03T00:14:39.807Z,62.26
2018-07-03T00:15:39.828Z,62.35
2018-07-03T00:16:39.862Z,62.74
2018-07-03T00:17:39.880Z,62.83
2018-07-03T00:18:39.918Z,63.02
2018-07-03T00:19:39.945Z,63.22
2018-07-03T00:20:39.965Z,63.99
2018-07-03T00:21:39.986Z,64.25
2018-07-03T00:22:40.016Z,64.05
2018-07-03T00:23:40.043Z,64.43
2018-07-03T00:24:40.066Z,64.82
2018-07-03T00:25:40.090Z,64.15
2018-07-03T00:26:40.117Z,64.53
2018-07-03T00:27:40.144Z,64.43
2018-07-03T00:28:40.165Z,64.43
2018-07-03T00:29:40.190Z,64.53
2018-07-03T00:30:40.223Z,64.63
2018-07-03T00:31:40.241Z,64.15
2018-07-03T00:32:40.273Z,64.25
2018-07-03T00:33:40.291Z,64.53
2018-07-03T00:34:40.319Z,64.34
2018-07-03T00:35:40.345Z,64.43
2018-07-03T00:36:40.375Z,64.25
2018-07-03T00:37:40.399Z,63.48
2018-07-03T00:38:40.421Z,63.38
2018-07-03T00:39:40.445Z,63.76
2018-07-03T00:40:40.477Z,64.15
2018-07-03T00:41:40.497Z,63.18
2018-07-03T00:42:40.529Z,63.38
2018-07-03T00:43:40.554Z,63.38
2018-07-03T00:44:40.576Z,63.76
2018-07-03T00:45:40.608Z,64.05
2018-07-03T00:46:40.625Z,63.86
2018-07-03T00:47:40.647Z,63.95
2018-07-03T00:48:40.679Z,64.15
2018-07-03T00:49:40.700Z,63.28
2018-07-03T00:50:40.726Z,63.28
2018-07-03T00:51:40.757Z,64.05
2018-07-03T00:52:40.780Z,64.63
2018-07-03T00:53:40.806Z,64.05
2018-07-03T00:54:40.837Z,64.34
2018-07-03T00:55:40.859Z,64.28
2018-07-03T00:56:40.881Z,63.09
2018-07-03T00:57:40.911Z,64.05
2018-07-03T00:58:40.941Z,63.18
2018-07-03T00:59:40.963Z,64.05
2018-07-03T01:00:40.986Z,64.63
2018-07-03T01:01:41.013Z,64.34
2018-07-03T01:02:41.039Z,64.82
2018-07-03T01:03:41.065Z,65.37
2018-07-03T01:04:41.079Z,65.17
2018-07-03T01:05:41.108Z,65.56
2018-07-03T01:06:41.137Z,65.66
2018-07-03T01:07:41.161Z,65.08
2018-07-03T01:08:41.187Z,65.56
2018-07-03T01:09:41.219Z,65.11
2018-07-03T01:10:41.261Z,65.40
2018-07-03T01:11:41.265Z,65.40
2018-07-03T01:12:41.291Z,65.01
2018-07-03T01:13:41.315Z,65.30
2018-07-03T01:14:41.339Z,65.01
2018-07-03T01:15:41.367Z,64.34
2018-07-03T01:16:41.392Z,64.34
2018-07-03T01:17:41.417Z,63.76
2018-07-03T01:18:41.439Z,64.34
2018-07-03T01:19:41.467Z,62.90
2018-07-03T01:20:41.499Z,62.71
2018-07-03T01:21:41.518Z,63.15
2018-07-03T01:22:41.548Z,63.92
2018-07-03T01:23:41.568Z,65.27
2018-07-03T01:24:41.599Z,64.98
2018-07-03T01:25:41.615Z,65.46
2018-07-03T01:26:41.645Z,65.17
2018-07-03T01:27:41.671Z,64.50
2018-07-03T01:28:41.701Z,64.50
2018-07-03T01:29:41.721Z,64.31
2018-07-03T01:30:41.745Z,64.31
2018-07-03T01:31:41.775Z,64.02
2018-07-03T01:32:41.801Z,64.31
2018-07-03T01:33:41.821Z,64.60
2018-07-03T01:34:41.847Z,64.60
2018-07-03T01:35:41.873Z,64.89
2018-07-03T01:36:41.901Z,64.85
2018-07-03T01:37:41.933Z,64.98
2018-07-03T01:38:41.955Z,66.33
2018-07-03T01:39:41.977Z,65.17
2018-07-03T01:40:42.002Z,65.66
2018-07-03T01:41:42.026Z,66.91
2018-07-03T01:42:42.055Z,66.42
2018-07-03T01:43:42.075Z,65.66
2018-07-03T01:44:42.099Z,65.27
2018-07-03T01:45:42.146Z,64.60
2018-07-03T01:46:42.151Z,64.50
2018-07-03T01:47:42.177Z,64.60
2018-07-03T01:48:42.201Z,64.50
2018-07-03T01:49:42.230Z,65.17
2018-07-03T01:50:42.258Z,64.98
2018-07-03T01:51:42.279Z,65.37
2018-07-03T01:52:42.305Z,65.17
2018-07-03T01:53:42.331Z,65.05
2018-07-03T01:54:42.351Z,65.46
2018-07-03T01:55:42.375Z,64.95
2018-07-03T01:56:42.405Z,65.23
2018-07-03T01:57:42.433Z,65.33
2018-07-03T01:58:42.453Z,65.53
2018-07-03T01:59:42.477Z,66.58
2018-07-03T02:00:42.507Z,65.62
2018-07-03T02:01:42.529Z,66.49
2018-07-03T02:02:42.557Z,66.97
2018-07-03T02:03:42.577Z,66.58
2018-07-03T02:04:42.607Z,66.55
2018-07-03T02:05:42.635Z,66.00
2018-07-03T02:06:42.653Z,67.07
2018-07-03T02:07:42.681Z,66.49
2018-07-03T02:08:42.703Z,66.87
2018-07-03T02:09:42.730Z,67.25
2018-07-03T02:10:42.756Z,67.54
2018-07-03T02:11:42.781Z,67.25
2018-07-03T02:12:42.807Z,66.58
2018-07-03T02:13:42.829Z,67.54
2018-07-03T02:14:42.855Z,68.21
2018-07-03T02:15:42.878Z,67.45
2018-07-03T02:16:42.911Z,66.97
2018-07-03T02:17:42.939Z,67.35
2018-07-03T02:18:42.954Z,67.07
2018-07-03T02:19:42.984Z,67.45
2018-07-03T02:20:43.005Z,67.07
2018-07-03T02:21:43.031Z,66.58
2018-07-03T02:22:43.057Z,67.54
2018-07-03T02:23:43.085Z,67.16
2018-07-03T02:24:43.103Z,66.77
2018-07-03T02:25:43.133Z,65.23
2018-07-03T02:26:43.157Z,65.72
2018-07-03T02:27:43.183Z,66.84
2018-07-03T02:28:43.202Z,66.97
2018-07-03T02:29:43.233Z,67.51
2018-07-03T02:30:43.254Z,68.08
2018-07-03T02:31:43.281Z,67.70
2018-07-03T02:32:43.305Z,68.18
2018-07-03T02:33:43.334Z,68.18
2018-07-03T02:34:43.359Z,68.28
2018-07-03T02:35:43.381Z,67.70
2018-07-03T02:36:43.401Z,68.37
2018-07-03T02:37:43.430Z,68.34
2018-07-03T02:38:43.454Z,67.99
2018-07-03T02:39:43.487Z,68.76
2018-07-03T02:40:43.507Z,68.28
2018-07-03T02:41:43.534Z,67.61
2018-07-03T02:42:43.556Z,68.28
2018-07-03T02:43:43.579Z,68.85
2018-07-03T02:44:43.608Z,68.12
2018-07-03T02:45:43.632Z,69.05
2018-07-03T02:46:43.652Z,69.43
2018-07-03T02:47:43.679Z,68.76
2018-07-03T02:48:43.707Z,68.95
2018-07-03T02:49:43.729Z,68.66
2018-07-03T02:50:43.754Z,69.24
2018-07-03T02:51:43.779Z,68.95
2018-07-03T02:52:43.799Z,68.66
2018-07-03T02:53:43.827Z,68.85
2018-07-03T02:54:43.853Z,69.05
2018-07-03T02:55:43.872Z,70.68
2018-07-03T02:56:43.902Z,70.58
2018-07-03T02:57:43.923Z,69.91
2018-07-03T02:58:43.955Z,69.81
2018-07-03T02:59:43.976Z,69.81
2018-07-03T03:00:43.999Z,69.72
2018-07-03T03:01:44.032Z,70.01
2018-07-03T03:02:44.056Z,69.72
2018-07-03T03:03:44.076Z,69.91
2018-07-03T03:04:44.103Z,69.43
2018-07-03T03:05:44.123Z,70.39
2018-07-03T03:06:44.155Z,70.58
2018-07-03T03:07:44.173Z,70.58
2018-07-03T03:08:44.199Z,70.10
2018-07-03T03:09:44.231Z,70.10
2018-07-03T03:10:44.250Z,70.29
2018-07-03T03:11:44.274Z,69.75
2018-07-03T03:12:44.299Z,68.47
2018-07-03T03:13:44.325Z,69.24
2018-07-03T03:14:44.345Z,69.91
2018-07-03T03:15:44.369Z,70.49
2018-07-03T03:16:44.441Z,70.58
2018-07-03T03:17:44.416Z,70.78
2018-07-03T03:18:44.449Z,70.29
2018-07-03T03:19:44.466Z,70.87
2018-07-03T03:20:44.492Z,71.73
2018-07-03T03:21:44.525Z,71.64
2018-07-03T03:22:44.542Z,71.55
2018-07-03T03:23:44.566Z,71.25
2018-07-03T03:24:44.591Z,70.97
2018-07-03T03:25:44.621Z,70.10
2018-07-03T03:26:44.642Z,70.39
2018-07-03T03:27:44.669Z,70.20
2018-07-03T03:28:44.691Z,70.29
2018-07-03T03:29:44.715Z,70.97
2018-07-03T03:30:44.744Z,72.02
2018-07-03T03:31:44.769Z,72.02
2018-07-03T03:32:44.786Z,72.69
2018-07-03T03:33:44.815Z,71.73
2018-07-03T03:34:44.842Z,71.55
2018-07-03T03:35:44.867Z,72.50
2018-07-03T03:36:44.896Z,73.18
2018-07-03T03:37:44.913Z,72.79
2018-07-03T03:38:44.941Z,73.27
2018-07-03T03:39:44.961Z,73.46
2018-07-03T03:40:44.989Z,73.46
2018-07-03T03:41:45.013Z,73.56
2018-07-03T03:42:45.042Z,74.33
2018-07-03T03:43:45.066Z,75.10
2018-07-03T03:44:45.088Z,74.33
2018-07-03T03:45:45.114Z,74.33
2018-07-03T03:46:45.140Z,74.90
2018-07-03T03:47:45.162Z,75.10
2018-07-03T03:48:45.187Z,75.48
2018-07-03T03:49:45.206Z,76.06
2018-07-03T03:50:45.235Z,74.81
2018-07-03T03:51:45.256Z,75.67
2018-07-03T03:52:45.285Z,75.67
2018-07-03T03:53:45.312Z,75.48
2018-07-03T03:54:45.339Z,74.62
2018-07-03T03:55:45.357Z,75.00
2018-07-03T03:56:45.381Z,75.38
2018-07-03T03:57:45.405Z,75.10
2018-07-03T03:58:45.432Z,75.10
2018-07-03T03:59:45.455Z,74.90
2018-07-03T04:00:45.516Z,75.00
2018-07-03T04:01:45.511Z,75.00
2018-07-03T04:02:45.532Z,75.96
2018-07-03T04:03:45.557Z,76.06
2018-07-03T04:04:45.582Z,76.34
2018-07-03T04:05:45.605Z,76.69
2018-07-03T04:06:45.631Z,77.40
2018-07-03T04:07:45.651Z,77.65
2018-07-03T04:08:45.680Z,77.36
2018-07-03T04:09:45.707Z,77.56
2018-07-03T04:10:45.732Z,78.23
2018-07-03T04:11:45.754Z,77.75
2018-07-03T04:12:45.777Z,78.32
2018-07-03T04:13:45.799Z,79.28
2018-07-03T04:14:45.826Z,78.61
2018-07-03T04:15:45.848Z,78.90
2018-07-03T04:16:45.878Z,78.61
2018-07-03T04:17:45.902Z,79.47
2018-07-03T04:18:45.925Z,80.24
2018-07-03T04:19:45.948Z,80.05
2018-07-03T04:20:45.975Z,80.97
2018-07-03T04:21:46.000Z,81.49
2018-07-03T04:22:46.027Z,81.78
2018-07-03T04:23:46.045Z,81.26
2018-07-03T04:24:46.070Z,81.54
2018-07-03T04:25:46.099Z,80.73
2018-07-03T04:26:46.121Z,80.43
2018-07-03T04:27:46.143Z,81.49
2018-07-03T04:28:46.170Z,80.82
2018-07-03T04:29:46.195Z,82.35
2018-07-03T04:30:46.219Z,82.45
2018-07-03T04:31:46.244Z,82.26
2018-07-03T04:33:46.295Z,80.43
2018-07-03T04:34:46.318Z,80.91
2018-07-03T04:35:46.337Z,81.49
2018-07-03T04:36:46.367Z,80.63
2018-07-03T04:37:46.394Z,80.82
2018-07-03T04:38:46.421Z,81.20
2018-07-03T04:39:46.439Z,80.53
2018-07-03T04:40:46.462Z,80.34
2018-07-03T04:41:46.503Z,79.86
2018-07-03T04:42:46.517Z,80.53
2018-07-03T04:43:46.541Z,80.63
2018-07-03T04:44:46.572Z,81.01
2018-07-03T04:45:46.588Z,81.68
2018-07-03T04:46:46.668Z,81.59
2018-07-03T04:47:46.644Z,81.78
2018-07-03T04:48:46.670Z,81.78
2018-07-03T04:49:46.687Z,82.26
2018-07-03T04:50:46.720Z,81.97
2018-07-03T04:51:46.739Z,82.07
2018-07-03T04:52:46.770Z,82.93
2018-07-03T04:53:46.799Z,81.30
2018-07-03T04:54:46.821Z,80.91
2018-07-03T04:55:46.847Z,80.24
2018-07-03T04:56:46.874Z,80.05
2018-07-03T04:57:46.903Z,79.28
2018-07-03T04:58:46.924Z,78.70
2018-07-03T04:59:46.950Z,78.84
2018-07-03T05:00:46.977Z,78.65
2018-07-03T05:01:47.001Z,78.94
2018-07-03T05:02:47.025Z,78.65
2018-07-03T05:03:47.055Z,79.13
2018-07-03T05:04:47.073Z,77.69
2018-07-03T05:05:47.101Z,76.73
2018-07-03T05:06:47.132Z,75.57
2018-07-03T05:07:47.148Z,75.38
2018-07-03T05:08:47.179Z,75.29
2018-07-03T05:09:47.203Z,75.87
2018-07-03T05:10:47.230Z,75.38
2018-07-03T05:11:47.258Z,75.62
2018-07-03T05:12:47.279Z,75.67
2018-07-03T05:13:47.301Z,76.09
2018-07-03T05:14:47.331Z,75.81
2018-07-03T05:15:47.357Z,74.85
2018-07-03T05:16:47.383Z,74.08
2018-07-03T05:17:47.409Z,74.08
2018-07-03T05:18:47.441Z,75.32
2018-07-03T05:19:47.457Z,76.48
2018-07-03T05:20:47.497Z,76.19
2018-07-03T05:21:47.517Z,75.32
2018-07-03T05:22:47.537Z,75.71
2018-07-03T05:23:47.563Z,75.62
2018-07-03T05:24:47.589Z,74.17
2018-07-03T05:25:47.617Z,74.85
2018-07-03T05:26:47.638Z,75.23
2018-07-03T05:27:47.666Z,75.04
2018-07-03T05:28:47.696Z,73.50
2018-07-03T05:29:47.718Z,73.79
2018-07-03T05:30:47.745Z,73.98
2018-07-03T05:31:47.821Z,73.98
2018-07-03T05:32:47.798Z,74.17
2018-07-03T05:33:47.815Z,72.64
2018-07-03T05:34:47.844Z,72.54
2018-07-03T05:35:47.876Z,72.92
2018-07-03T05:36:47.898Z,73.31
2018-07-03T05:37:47.927Z,72.73
2018-07-03T05:38:47.950Z,72.54
2018-07-03T05:39:48.002Z,72.58
2018-07-03T05:40:48.004Z,71.71
2018-07-03T05:41:48.023Z,71.00
2018-07-03T05:42:48.087Z,70.84
2018-07-03T05:43:48.076Z,70.56
2018-07-03T05:44:48.107Z,71.04
2018-07-03T05:45:48.136Z,71.04
2018-07-03T05:46:48.161Z,70.84
2018-07-03T05:47:48.182Z,70.75
2018-07-03T05:48:48.209Z,70.75
2018-07-03T05:49:48.236Z,71.91
2018-07-03T05:50:48.405Z,71.04
2018-07-03T05:51:48.356Z,70.46
2018-07-03T05:52:48.314Z,69.79
2018-07-03T05:53:48.336Z,69.79
2018-07-03T05:54:48.362Z,70.94
2018-07-03T05:55:48.390Z,71.77
2018-07-03T05:56:48.418Z,71.77
2018-07-03T05:57:48.443Z,71.10
2018-07-03T05:58:48.469Z,70.90
2018-07-03T05:59:48.497Z,70.56
2018-07-03T06:00:48.516Z,70.75
2018-07-03T06:01:48.537Z,70.75
2018-07-03T06:02:48.572Z,71.67
2018-07-03T06:03:48.642Z,72.06
2018-07-03T06:04:48.627Z,71.04
2018-07-03T06:05:48.646Z,69.60
2018-07-03T06:06:48.672Z,68.83
2018-07-03T06:07:48.701Z,68.92
2018-07-03T06:08:48.726Z,68.92
2018-07-03T06:09:48.752Z,69.12
2018-07-03T06:10:48.776Z,69.69
2018-07-03T06:11:48.800Z,69.21
2018-07-03T06:12:48.871Z,69.60
2018-07-03T06:13:48.855Z,69.60
2018-07-03T06:14:48.956Z,68.63
2018-07-03T06:15:48.906Z,68.73
2018-07-03T06:16:48.952Z,68.92
2018-07-03T06:17:48.960Z,68.83
2018-07-03T06:18:48.986Z,68.35
2018-07-03T06:19:49.011Z,68.96
2018-07-03T06:20:49.038Z,68.09
2018-07-03T06:21:49.066Z,68.38
2018-07-03T06:22:49.145Z,67.99
2018-07-03T06:23:49.114Z,67.03
2018-07-03T06:24:49.150Z,67.61
2018-07-03T06:25:49.174Z,66.36
2018-07-03T06:26:49.199Z,66.94
2018-07-03T06:27:49.297Z,67.03
2018-07-03T06:28:49.318Z,66.36
2018-07-03T06:29:49.273Z,66.17
2018-07-03T06:30:49.300Z,66.84
2018-07-03T06:31:49.329Z,67.03
2018-07-03T06:32:49.348Z,67.61
2018-07-03T06:33:49.375Z,68.19
2018-07-03T06:34:49.402Z,68.29
2018-07-03T06:35:49.426Z,67.61
2018-07-03T06:36:49.458Z,66.65
2018-07-03T06:37:49.479Z,65.59
2018-07-03T06:38:49.508Z,65.20
2018-07-03T06:39:49.557Z,65.01
2018-07-03T06:40:49.561Z,65.01
2018-07-03T06:41:49.592Z,65.30
2018-07-03T06:42:49.613Z,65.01
2018-07-03T06:43:49.641Z,65.01
2018-07-03T06:44:49.701Z,64.95
2018-07-03T06:45:49.688Z,65.33
2018-07-03T06:46:49.735Z,66.10
2018-07-03T06:47:49.744Z,66.58
2018-07-03T06:48:49.769Z,65.91
2018-07-03T06:49:49.794Z,65.05
2018-07-03T06:50:49.819Z,64.66
2018-07-03T06:51:49.899Z,64.56
2018-07-03T06:52:49.882Z,64.56
2018-07-03T06:53:49.902Z,63.22
2018-07-03T06:54:49.931Z,63.79
2018-07-03T06:55:49.951Z,65.05
2018-07-03T06:56:49.984Z,65.24
2018-07-03T06:57:50.032Z,65.33
2018-07-03T06:58:50.032Z,64.56
2018-07-03T06:59:50.061Z,63.02
2018-07-03T07:00:50.087Z,63.41
2018-07-03T07:01:50.110Z,63.31
2018-07-03T07:02:50.140Z,63.99
2018-07-03T07:03:50.164Z,64.86
2018-07-03T07:04:50.187Z,64.86
2018-07-03T07:05:50.221Z,64.56
2018-07-03T07:06:50.243Z,64.47
2018-07-03T07:07:50.269Z,64.18
2018-07-03T07:08:50.512Z,63.99
2018-07-03T07:09:50.324Z,62.45
2018-07-03T07:10:50.350Z,62.26
2018-07-03T07:11:50.378Z,62.29
2018-07-03T07:12:50.398Z,62.00
2018-07-03T07:13:50.429Z,61.13
2018-07-03T07:14:50.454Z,60.46
2018-07-03T07:21:50.641Z,60.75
2018-07-03T07:22:50.664Z,60.27
2018-07-03T07:23:50.693Z,60.17
2018-07-03T07:24:53.403Z,60.07
2018-07-03T07:25:50.775Z,59.69
2018-07-03T07:26:50.770Z,58.53
2018-07-03T07:27:50.797Z,57.86
2018-07-03T07:28:50.822Z,58.05
2018-07-03T07:29:50.859Z,57.95
2018-07-03T07:30:50.878Z,58.44
2018-07-03T07:31:50.905Z,59.30
2018-07-03T07:32:50.931Z,59.97
2018-07-03T07:33:50.958Z,58.53
2018-07-03T07:34:50.984Z,58.08
2018-07-03T07:35:51.027Z,58.82
2018-07-03T07:36:51.034Z,59.14
2018-07-03T07:37:51.064Z,57.98
2018-07-03T07:38:51.103Z,55.77
2018-07-03T07:39:51.144Z,55.19
2018-07-03T07:40:51.141Z,55.96
2018-07-03T07:41:51.166Z,57.02
2018-07-03T07:42:51.204Z,56.54
2018-07-03T07:43:51.222Z,57.12
2018-07-03T07:44:51.252Z,57.02
2018-07-03T07:45:51.879Z,56.25
2018-07-03T07:46:51.304Z,56.63
2018-07-03T07:47:51.344Z,56.82
2018-07-03T07:48:51.353Z,56.44
2018-07-03T07:49:51.381Z,55.38
2018-07-03T07:50:51.412Z,55.19
2018-07-03T07:51:51.432Z,55.48
2018-07-03T07:52:51.464Z,55.29
2018-07-03T07:53:54.713Z,54.80
2018-07-03T07:54:51.563Z,53.74
2018-07-03T07:55:51.537Z,53.94
2018-07-03T07:56:51.590Z,54.80
2018-07-03T07:57:51.589Z,52.69
2018-07-03T07:58:51.622Z,53.17
2018-07-03T07:59:51.643Z,53.74
2018-07-03T08:00:51.672Z,53.74
2018-07-03T08:01:51.697Z,53.09
2018-07-03T08:02:51.928Z,51.94
2018-07-03T08:03:51.744Z,52.81
2018-07-03T08:04:51.781Z,52.13
2018-07-03T08:05:51.801Z,53.87
2018-07-03T08:06:51.831Z,54.76
2018-07-03T08:07:51.854Z,54.86
2018-07-03T08:08:51.887Z,54.83
2018-07-03T08:09:51.913Z,53.03
2018-07-03T08:10:51.935Z,52.52
2018-07-03T08:11:51.960Z,49.37
2018-07-03T08:12:51.988Z,49.07
2018-07-03T08:13:52.023Z,49.55
2018-07-03T08:14:52.045Z,47.14
2018-07-03T08:15:52.067Z,47.12
2018-07-03T08:16:52.097Z,47.31
2018-07-03T08:17:52.119Z,47.12
2018-07-03T08:18:52.152Z,49.84
2018-07-03T08:19:52.174Z,49.17
2018-07-03T08:20:52.199Z,48.88
2018-07-03T08:21:52.229Z,47.44
2018-07-03T08:22:52.256Z,48.79
2018-07-03T08:23:52.281Z,49.65
2018-07-03T08:24:52.307Z,49.17
2018-07-03T08:25:52.343Z,50.32
2018-07-03T08:26:52.363Z,46.76
2018-07-03T08:27:52.391Z,47.14
2018-07-03T08:28:52.419Z,46.11
2018-07-03T08:29:52.444Z,46.97
2018-07-03T08:30:52.466Z,46.37
2018-07-03T08:31:52.499Z,46.49
2018-07-03T08:32:52.518Z,45.62
2018-07-03T08:33:52.553Z,46.78
2018-07-03T08:34:52.573Z,45.82
2018-07-03T08:35:52.601Z,46.49
2018-07-03T08:36:52.627Z,47.75
2018-07-03T08:37:52.666Z,45.04
2018-07-03T08:38:52.679Z,44.37
2018-07-03T08:39:52.709Z,44.95
2018-07-03T08:40:52.735Z,45.82
2018-07-03T08:41:52.767Z,47.85
2018-07-03T08:42:52.829Z,45.62
2018-07-03T08:43:52.819Z,43.50
2018-07-03T08:44:52.841Z,46.30
2018-07-03T08:45:52.869Z,44.46
2018-07-03T08:46:52.900Z,47.85
2018-07-03T08:47:52.919Z,45.84
2018-07-03T08:48:52.949Z,45.07
2018-07-03T08:49:52.977Z,46.42
2018-07-03T08:50:53.003Z,43.72
2018-07-03T08:51:53.113Z,42.18
2018-07-03T08:52:53.057Z,41.69
2018-07-03T08:53:53.081Z,42.46
2018-07-03T08:54:53.111Z,45.65
2018-07-03T08:55:53.132Z,45.26
2018-07-03T08:56:53.165Z,46.06
2018-07-03T08:57:53.193Z,46.03
2018-07-03T08:58:53.219Z,48.08
2018-07-03T08:59:53.242Z,45.76
2018-07-03T09:00:53.327Z,44.90
2018-07-03T09:01:53.299Z,47.31
2018-07-03T09:02:53.329Z,45.00
2018-07-03T09:03:53.363Z,43.57
2018-07-03T09:04:53.379Z,42.79
2018-07-03T09:05:53.408Z,44.05
2018-07-03T09:06:53.441Z,45.98
2018-07-03T09:07:53.467Z,44.92
2018-07-03T09:08:53.488Z,44.43
2018-07-03T09:09:53.523Z,44.15
2018-07-03T09:10:53.543Z,42.99
2018-07-03T09:11:53.563Z,42.79
2018-07-03T09:12:53.599Z,41.54
2018-07-03T09:13:53.626Z,41.25
2018-07-03T09:14:53.653Z,40.38
2018-07-03T09:15:53.683Z,40.28
2018-07-03T09:16:53.709Z,42.12
2018-07-03T09:17:53.806Z,43.66
2018-07-03T09:18:53.765Z,43.28
2018-07-03T09:19:53.789Z,41.73
2018-07-03T09:20:53.811Z,40.19
2018-07-03T09:21:53.843Z,40.38
2018-07-03T09:22:53.877Z,40.28
2018-07-03T09:23:53.902Z,41.17
2018-07-03T09:24:53.930Z,40.01
2018-07-03T09:25:53.965Z,40.11
2018-07-03T09:26:53.984Z,42.04
2018-07-03T09:27:54.009Z,43.10
2018-07-03T09:28:54.039Z,40.40
2018-07-03T09:29:54.063Z,38.93
2018-07-03T09:30:54.099Z,39.72
2018-07-03T09:31:54.119Z,39.53
2018-07-03T09:32:54.153Z,39.62
2018-07-03T09:33:54.177Z,39.53
2018-07-03T09:34:54.205Z,40.20
2018-07-03T09:35:54.236Z,39.62
2018-07-03T09:36:54.284Z,40.20
2018-07-03T09:37:54.298Z,42.65
2018-07-03T09:38:54.321Z,40.90
2018-07-03T09:39:54.350Z,42.45
2018-07-03T09:40:54.379Z,42.45
2018-07-03T09:41:54.399Z,39.94
2018-07-03T09:42:54.431Z,39.55
2018-07-03T09:43:54.454Z,41.67
2018-07-03T09:44:54.484Z,42.25
2018-07-03T09:45:54.516Z,45.74
2018-07-03T09:46:54.539Z,44.38
2018-07-03T09:47:54.568Z,42.45
2018-07-03T09:48:54.649Z,46.05
2018-07-03T09:49:54.623Z,42.76
2018-07-03T09:50:54.650Z,44.02
2018-07-03T09:51:54.681Z,41.41
2018-07-03T09:52:54.705Z,42.65
2018-07-03T09:53:54.737Z,41.99
2018-07-03T09:54:54.811Z,39.06
2018-07-03T09:55:54.792Z,38.31
2018-07-03T09:56:54.823Z,39.57
2018-07-03T09:57:54.849Z,40.34
2018-07-03T09:58:54.878Z,41.11
2018-07-03T09:59:54.908Z,42.45
2018-07-03T10:00:54.933Z,39.55
2018-07-03T10:01:54.962Z,37.81
2018-07-03T10:02:54.988Z,39.45
2018-07-03T10:03:55.019Z,37.62
2018-07-03T10:04:55.048Z,38.87
2018-07-03T10:05:55.081Z,39.06
2018-07-03T10:06:55.103Z,39.36
2018-07-03T10:07:55.136Z,38.87
2018-07-03T10:08:55.162Z,39.16
2018-07-03T10:09:55.193Z,37.62
2018-07-03T10:10:55.215Z,37.81
2018-07-03T10:11:55.246Z,36.55
2018-07-03T10:12:55.292Z,38.29
2018-07-03T10:13:55.301Z,38.10
2018-07-03T10:14:55.329Z,37.50
2018-07-03T10:15:55.353Z,38.56
2018-07-03T10:16:55.387Z,39.62
2018-07-03T10:17:55.411Z,36.13
2018-07-03T10:18:55.456Z,36.13
2018-07-03T10:19:55.466Z,37.19
2018-07-03T10:20:55.503Z,37.67
2018-07-03T10:21:55.527Z,37.19
2018-07-03T10:22:55.551Z,34.39
2018-07-03T10:23:55.583Z,34.39
2018-07-03T10:24:55.606Z,36.71
2018-07-03T10:25:55.640Z,35.94
2018-07-03T10:26:55.668Z,34.68
2018-07-03T10:27:55.688Z,36.82
2018-07-03T10:28:55.721Z,38.97
2018-07-03T10:29:55.746Z,36.84
2018-07-03T10:30:55.783Z,35.49
2018-07-03T10:31:55.803Z,32.10
2018-07-03T10:32:55.836Z,32.39
2018-07-03T10:33:55.873Z,32.51
2018-07-03T10:34:55.896Z,31.63
2018-07-03T10:35:55.918Z,31.54
2018-07-03T10:36:55.946Z,34.34
2018-07-03T10:37:55.975Z,32.41
2018-07-03T10:38:56.001Z,31.73
2018-07-03T10:39:56.035Z,32.21
2018-07-03T10:40:56.057Z,31.65
2018-07-03T10:41:56.087Z,34.17
2018-07-03T10:42:56.118Z,33.39
2018-07-03T10:43:56.143Z,34.84
2018-07-03T10:44:56.170Z,35.81
2018-07-03T10:45:56.197Z,33.49
2018-07-03T10:46:56.242Z,34.75
2018-07-03T10:47:56.255Z,36.70
2018-07-03T10:48:56.300Z,34.57
2018-07-03T10:49:56.315Z,33.72
2018-07-03T10:50:56.341Z,29.74
2018-07-03T10:51:56.367Z,29.16
2018-07-03T10:52:56.400Z,31.49
2018-07-03T10:53:56.429Z,33.14
2018-07-03T10:54:56.456Z,32.36
2018-07-03T10:55:56.486Z,32.26
2018-07-03T10:56:56.512Z,34.69
2018-07-03T10:57:56.543Z,37.49
2018-07-03T10:58:56.572Z,35.85
2018-07-03T10:59:56.603Z,35.44
2018-07-03T11:00:56.624Z,34.09
2018-07-03T11:01:56.663Z,34.96
2018-07-03T11:02:56.689Z,37.28
2018-07-03T11:03:56.715Z,38.95
2018-07-03T11:04:56.741Z,37.21
2018-07-03T11:05:56.777Z,37.41
2018-07-03T11:06:56.799Z,37.23
2018-07-03T11:07:56.833Z,35.21
2018-07-03T11:08:56.858Z,33.26
2018-07-03T11:09:56.888Z,32.68
2018-07-03T11:10:56.921Z,33.38
2018-07-03T11:11:56.945Z,32.91
2018-07-03T11:12:56.990Z,30.88
2018-07-03T11:13:57.121Z,33.15
2018-07-03T11:14:57.032Z,31.22
2018-07-03T11:15:57.076Z,31.16
2018-07-03T11:16:57.095Z,29.82
2018-07-03T11:17:57.139Z,28.45
2018-07-03T11:18:57.165Z,27.59
2018-07-03T11:19:57.302Z,28.40
2018-07-03T11:20:57.231Z,27.67
2018-07-03T11:21:57.265Z,25.07
2018-07-03T11:22:57.291Z,23.44
2018-07-03T11:23:57.328Z,22.38
2018-07-03T11:24:57.353Z,22.00
2018-07-03T11:25:57.395Z,21.43
2018-07-03T11:26:57.432Z,19.78
2018-07-03T11:27:57.459Z,19.68
2018-07-03T11:28:57.542Z,21.66
2018-07-03T11:29:57.529Z,21.28
2018-07-03T11:30:57.766Z,18.91
2018-07-03T11:31:57.596Z,17.14
2018-07-03T11:32:57.632Z,17.54
2018-07-03T11:33:57.675Z,17.63
2018-07-03T11:34:57.703Z,17.74
2018-07-03T11:35:57.738Z,18.63
2018-07-03T11:36:57.776Z,18.92
2018-07-03T11:37:57.816Z,18.92
2018-07-03T11:38:57.849Z,18.74
2018-07-03T11:40:00.913Z,16.29
2018-07-03T11:40:57.920Z,14.73
2018-07-03T11:41:57.973Z,14.34
2018-07-03T11:42:57.999Z,14.70
2018-07-03T11:43:59.444Z,15.20
2018-07-03T11:44:58.066Z,15.69
2018-07-03T11:46:40.690Z,16.00
2018-07-03T11:47:40.703Z,16.20
2018-07-03T11:48:40.733Z,15.72
2018-07-03T11:49:40.778Z,14.91
2018-07-03T11:50:40.809Z,17.07
2018-07-03T11:51:40.851Z,16.67
2018-07-03T11:52:40.885Z,16.09
2018-07-03T11:53:40.952Z,15.48
2018-07-03T11:54:40.957Z,16.28
2018-07-03T11:55:41.001Z,16.38
2018-07-03T11:56:41.852Z,16.29
2018-07-03T11:57:41.081Z,16.49
2018-07-03T11:58:41.109Z,15.98
2018-07-03T12:00:23.714Z,15.70
2018-07-03T12:01:23.799Z,15.51
2018-07-03T12:02:23.783Z,16.20
2018-07-03T12:03:23.823Z,14.31
2018-07-03T12:04:23.862Z,14.70
2018-07-03T12:05:23.899Z,16.47
2018-07-03T12:06:23.944Z,19.82
2018-07-03T12:07:23.977Z,18.92
2018-07-03T12:08:24.013Z,20.42
2018-07-03T12:09:24.071Z,18.07
2018-07-03T12:11:21.688Z,15.42
2018-07-03T12:12:21.728Z,14.62
2018-07-03T12:13:21.767Z,14.33
2018-07-03T12:14:21.803Z,15.03
2018-07-03T12:15:21.842Z,14.34
2018-07-03T12:16:21.883Z,14.25
2018-07-03T12:17:21.923Z,13.76
2018-07-03T12:18:21.955Z,14.35
2018-07-03T12:19:22.006Z,14.75
2018-07-03T12:20:22.040Z,15.45
2018-07-03T12:21:22.077Z,14.95
2018-07-03T12:22:22.118Z,14.76
2018-07-03T12:23:22.162Z,15.52
2018-07-03T12:24:22.193Z,15.52
2018-07-03T12:25:22.238Z,15.73
2018-07-03T12:26:22.274Z,15.53
2018-07-03T12:27:22.311Z,15.64
2018-07-03T12:28:22.351Z,15.05
2018-07-03T12:29:22.389Z,15.14
2018-07-03T12:30:22.436Z,15.33
2018-07-03T12:31:22.469Z,14.43
2018-07-03T12:32:22.513Z,17.49
2018-07-03T12:33:22.551Z,16.19
2018-07-03T12:34:22.592Z,16.60
2018-07-03T12:35:22.625Z,15.32
2018-07-03T12:36:22.674Z,15.42
2018-07-03T12:37:22.715Z,15.05
2018-07-03T12:38:22.753Z,14.25
2018-07-03T12:39:22.792Z,13.66
2018-07-03T12:40:22.832Z,14.45
2018-07-03T12:41:22.872Z,13.78
2018-07-03T12:42:22.914Z,13.49
2018-07-03T12:43:22.951Z,14.36
2018-07-03T12:44:22.985Z,16.81
2018-07-03T12:45:23.031Z,16.12
2018-07-03T12:46:23.071Z,15.42
2018-07-03T12:47:23.108Z,17.30
2018-07-03T12:48:23.156Z,16.42
2018-07-03T12:49:23.193Z,15.35
2018-07-03T12:50:23.233Z,15.95
2018-07-03T12:51:23.271Z,15.46
2018-07-03T12:52:23.311Z,15.46
2018-07-03T12:53:23.357Z,14.38
2018-07-03T12:54:23.395Z,14.09
2018-07-03T12:55:23.458Z,13.68
2018-07-03T12:56:23.483Z,14.27
2018-07-03T12:57:23.513Z,15.66
2018-07-03T12:58:23.571Z,14.46
2018-07-03T12:59:23.604Z,15.35
2018-07-03T13:00:23.639Z,14.17
2018-07-03T13:01:23.682Z,14.75
2018-07-03T13:02:23.774Z,15.34